Time;durP1;ratioP1;P1;durP2;ratioP2;P2;SDS_P1;SDS_P2;PMS_P1;PMS_P2;Temp;Humidity;BMP_temperature;BMP_pressure;BME280_temperature;BME280_humidity;BME280_pressure;Samples;Min_cycle;Max_cycle;Signal;HPM_P1;HPM_P2
2023/05/14 00:01:19;;;;;;;12.45;7.03;;;;;;;;;;7364172;19;20003;-84
2023/05/14 00:03:44;;;;;;;9.80;7.13;;;;;;;;;;7370115;19;20466;-84
2023/05/14 00:06:09;;;;;;;9.67;6.93;;;;;;;;;;7343451;19;20324;-84
2023/05/14 00:08:35;;;;;;;10.48;7.47;;;;;;;;;;7357130;19;20247;-84
2023/05/14 00:11:00;;;;;;;15.77;7.38;;;;;;;;;;7355374;19;20022;-84
2023/05/14 00:13:25;;;;;;;11.95;7.43;;;;;;;;;;7365379;19;20024;-85
2023/05/14 00:15:50;;;;;;;12.37;7.70;;;;;;;;;;7371841;19;20009;-84
2023/05/14 00:18:15;;;;;;;10.68;8.07;;;;;;;;;;7375939;19;20623;-84
2023/05/14 00:20:41;;;;;;;10.75;8.18;;;;;;;;;;7370383;19;20022;-84
2023/05/14 00:23:06;;;;;;;14.60;9.07;;;;;;;;;;7361153;19;20946;-84
2023/05/14 00:25:31;;;;;;;11.13;7.38;;;;;;;;;;7373109;19;20006;-84
2023/05/14 00:27:56;;;;;;;13.07;7.88;;;;;;;;;;7374183;19;20038;-84
2023/05/14 00:30:21;;;;;;;10.50;7.53;;;;;;;;;;7370539;19;20082;-84
2023/05/14 00:32:47;;;;;;;14.30;7.73;;;;;;;;;;7374724;19;20263;-84
2023/05/14 00:35:12;;;;;;;13.38;8.35;;;;;;;;;;7376560;19;20295;-85
2023/05/14 00:37:37;;;;;;;12.33;8.47;;;;;;;;;;7357251;19;20001;-84
2023/05/14 00:40:03;;;;;;;10.52;8.30;;;;;;;;;;7374870;19;20235;-84
2023/05/14 00:42:28;;;;;;;14.55;9.55;;;;;;;;;;7371836;19;20002;-85
2023/05/14 00:44:53;;;;;;;11.23;8.18;;;;;;;;;;7397141;19;19991;-85
2023/05/14 00:47:18;;;;;;;12.73;8.23;;;;;;;;;;7369825;19;20025;-84
2023/05/14 00:49:44;;;;;;;11.57;7.53;;;;;;;;;;7371716;19;20002;-84
2023/05/14 00:52:10;;;;;;;10.43;7.53;;;;;;;;;;7352706;19;19999;-84
2023/05/14 00:54:35;;;;;;;13.25;8.43;;;;;;;;;;7367960;19;20006;-84
2023/05/14 00:57:00;;;;;;;11.50;7.93;;;;;;;;;;7368654;19;19995;-85
2023/05/14 00:59:26;;;;;;;11.13;8.50;;;;;;;;;;7366474;19;20574;-84
2023/05/14 01:01:51;;;;;;;16.38;8.32;;;;;;;;;;7366636;19;20002;-84
2023/05/14 01:04:16;;;;;;;12.27;7.57;;;;;;;;;;7372407;19;20030;-85
2023/05/14 01:06:51;;;;;;;11.95;7.32;;;;;;;;;;7333881;19;20817;-85
2023/05/14 01:09:23;;;;;;;12.07;7.95;;;;;;;;;;7272401;19;20929;-84
2023/05/14 01:11:58;;;;;;;12.85;7.88;;;;;;;;;;7269163;19;20237;-85
2023/05/14 01:14:38;;;;;;;12.52;7.85;;;;;;;;;;7266475;19;20544;-85
2023/05/14 01:17:05;;;;;;;11.70;8.02;;;;;;;;;;7279764;19;20825;-85
2023/05/14 01:19:39;;;;;;;17.95;8.02;;;;;;;;;;7276514;19;20022;-85
2023/05/14 01:22:05;;;;;;;11.90;8.05;;;;;;;;;;7275419;19;20010;-85
2023/05/14 01:24:30;;;;;;;12.40;8.00;;;;;;;;;;7273752;19;20333;-85
2023/05/14 01:26:58;;;;;;;11.63;7.87;;;;;;;;;;7280460;19;20369;-85
2023/05/14 01:29:25;;;;;;;11.18;7.80;;;;;;;;;;7282293;19;20784;-84
2023/05/14 01:31:53;;;;;;;11.32;8.77;;;;;;;;;;7278903;19;20007;-85
2023/05/14 01:34:19;;;;;;;10.88;7.43;;;;;;;;;;7276785;19;20440;-85
2023/05/14 01:36:46;;;;;;;13.43;9.52;;;;;;;;;;7269798;19;20015;-85
2023/05/14 01:39:12;;;;;;;12.48;8.52;;;;;;;;;;7274068;19;20276;-85
2023/05/14 01:41:38;;;;;;;12.20;8.90;;;;;;;;;;7273887;19;20644;-85
2023/05/14 01:44:03;;;;;;;11.75;7.90;;;;;;;;;;7277548;19;20006;-86
2023/05/14 01:46:32;;;;;;;11.48;8.52;;;;;;;;;;7276463;19;20465;-85
2023/05/14 01:48:57;;;;;;;11.70;8.80;;;;;;;;;;7272170;19;20579;-85
2023/05/14 01:51:22;;;;;;;13.60;9.38;;;;;;;;;;7251375;19;20733;-85
2023/05/14 01:53:47;;;;;;;12.48;8.20;;;;;;;;;;7257925;19;20028;-85
2023/05/14 01:56:13;;;;;;;11.43;7.57;;;;;;;;;;7267669;19;19999;-85
2023/05/14 01:58:38;;;;;;;11.48;7.82;;;;;;;;;;7254792;19;19998;-85
2023/05/14 02:01:03;;;;;;;11.47;7.73;;;;;;;;;;7267938;19;20484;-85
2023/05/14 02:03:28;;;;;;;11.43;7.65;;;;;;;;;;7267842;19;20682;-85
2023/05/14 02:05:53;;;;;;;8.60;6.73;;;;;;;;;;7263299;19;20014;-85
2023/05/14 02:08:19;;;;;;;13.15;7.35;;;;;;;;;;7350649;19;20251;-84
2023/05/14 02:10:44;;;;;;;10.80;7.30;;;;;;;;;;7363952;19;20021;-84
2023/05/14 02:13:09;;;;;;;9.07;7.18;;;;;;;;;;7366051;19;20037;-84
2023/05/14 02:15:36;;;;;;;10.60;7.47;;;;;;;;;;7363665;19;20009;-86
2023/05/14 02:18:02;;;;;;;12.43;7.53;;;;;;;;;;7365208;19;20025;-85
2023/05/14 02:20:27;;;;;;;12.07;8.10;;;;;;;;;;7361057;19;19995;-85
2023/05/14 02:22:52;;;;;;;12.65;8.27;;;;;;;;;;7361410;19;20014;-84
2023/05/14 02:25:17;;;;;;;12.90;8.97;;;;;;;;;;7366994;19;20602;-84
2023/05/14 02:27:43;;;;;;;12.23;8.18;;;;;;;;;;7370306;19;20276;-84
2023/05/14 02:30:08;;;;;;;13.10;8.82;;;;;;;;;;7372386;19;20001;-84
2023/05/14 02:32:33;;;;;;;11.40;9.20;;;;;;;;;;7379172;19;20006;-84
2023/05/14 02:34:58;;;;;;;14.57;8.98;;;;;;;;;;7381239;19;20539;-85
2023/05/14 02:37:24;;;;;;;12.13;9.20;;;;;;;;;;7375228;19;20247;-84
2023/05/14 02:39:49;;;;;;;11.97;8.93;;;;;;;;;;7377198;19;20237;-84
2023/05/14 02:42:14;;;;;;;11.10;8.30;;;;;;;;;;7379053;19;20244;-84
2023/05/14 02:44:39;;;;;;;12.87;8.90;;;;;;;;;;7371517;19;20277;-85
2023/05/14 02:47:04;;;;;;;12.82;8.38;;;;;;;;;;7379230;19;20239;-84
2023/05/14 02:49:30;;;;;;;10.57;8.90;;;;;;;;;;7379315;19;20571;-84
2023/05/14 02:51:55;;;;;;;16.30;7.90;;;;;;;;;;7362683;19;19998;-84
2023/05/14 02:54:20;;;;;;;11.63;8.85;;;;;;;;;;7363837;19;20255;-85
2023/05/14 02:56:45;;;;;;;10.73;8.90;;;;;;;;;;7371659;19;20027;-84
2023/05/14 02:59:11;;;;;;;12.77;9.43;;;;;;;;;;7373326;19;20656;-84
2023/05/14 03:01:36;;;;;;;14.80;9.30;;;;;;;;;;7368384;19;20003;-84
2023/05/14 03:04:01;;;;;;;13.02;10.20;;;;;;;;;;7369936;19;20015;-84
2023/05/14 03:06:26;;;;;;;13.90;10.20;;;;;;;;;;7367869;19;19991;-85
2023/05/14 03:08:51;;;;;;;16.70;11.02;;;;;;;;;;7368228;19;20252;-84
2023/05/14 03:11:16;;;;;;;13.10;11.15;;;;;;;;;;7369602;19;20005;-83
2023/05/14 03:13:42;;;;;;;16.00;12.05;;;;;;;;;;7369387;19;20275;-85
2023/05/14 03:16:07;;;;;;;16.08;12.88;;;;;;;;;;7374498;19;20020;-85
2023/05/14 03:18:33;;;;;;;16.15;11.52;;;;;;;;;;7391680;19;20014;-84
2023/05/14 03:20:58;;;;;;;14.68;11.85;;;;;;;;;;7370205;19;20099;-85
2023/05/14 03:23:23;;;;;;;16.92;11.15;;;;;;;;;;7370962;19;20157;-84
2023/05/14 03:25:49;;;;;;;14.13;10.40;;;;;;;;;;7373049;19;19994;-84
2023/05/14 03:28:14;;;;;;;16.90;11.75;;;;;;;;;;7372067;19;20276;-84
2023/05/14 03:30:40;;;;;;;15.50;12.40;;;;;;;;;;7368584;19;20097;-85
2023/05/14 03:33:05;;;;;;;13.15;11.00;;;;;;;;;;7370942;19;20255;-85
2023/05/14 03:35:31;;;;;;;14.18;11.23;;;;;;;;;;7369826;19;20960;-84
2023/05/14 03:37:58;;;;;;;13.20;10.75;;;;;;;;;;7359779;19;20003;-84
2023/05/14 03:40:23;;;;;;;16.75;11.55;;;;;;;;;;7367893;19;20010;-84
2023/05/14 03:42:48;;;;;;;16.10;11.43;;;;;;;;;;7367551;19;20006;-84
2023/05/14 03:45:13;;;;;;;16.23;12.20;;;;;;;;;;7369534;19;20011;-83
2023/05/14 03:47:38;;;;;;;18.95;13.15;;;;;;;;;;7366054;19;20077;-84
2023/05/14 03:50:07;;;;;;;16.92;12.98;;;;;;;;;;7370797;19;20227;-85
2023/05/14 03:52:32;;;;;;;13.52;9.68;;;;;;;;;;7356514;19;20106;-84
2023/05/14 03:54:57;;;;;;;13.55;10.68;;;;;;;;;;7369618;19;20003;-84
2023/05/14 03:57:22;;;;;;;15.57;10.80;;;;;;;;;;7370942;19;20037;-83
2023/05/14 03:59:48;;;;;;;13.25;9.77;;;;;;;;;;7365142;19;20230;-84
2023/05/14 04:02:13;;;;;;;12.98;9.85;;;;;;;;;;7367496;19;19994;-85
2023/05/14 04:04:38;;;;;;;13.13;10.53;;;;;;;;;;7366700;19;19997;-85
2023/05/14 04:07:04;;;;;;;13.75;11.23;;;;;;;;;;7362935;19;20696;-84
2023/05/14 04:09:29;;;;;;;13.83;11.20;;;;;;;;;;7363594;19;20339;-85
2023/05/14 04:11:54;;;;;;;12.30;10.33;;;;;;;;;;7365678;19;21039;-85
2023/05/14 04:14:19;;;;;;;13.23;10.10;;;;;;;;;;7366202;19;20300;-85
2023/05/14 04:16:44;;;;;;;15.65;10.75;;;;;;;;;;7363388;19;20006;-85
2023/05/14 04:19:11;;;;;;;16.13;11.10;;;;;;;;;;7370177;19;20058;-85
2023/05/14 04:21:36;;;;;;;14.10;11.15;;;;;;;;;;7363457;19;20259;-85
2023/05/14 04:24:01;;;;;;;13.17;11.33;;;;;;;;;;7368091;19;20010;-84
2023/05/14 04:26:26;;;;;;;15.15;11.75;;;;;;;;;;7376788;19;20655;-84
2023/05/14 04:28:51;;;;;;;14.45;11.40;;;;;;;;;;7372510;19;20046;-84
2023/05/14 04:31:16;;;;;;;13.93;11.90;;;;;;;;;;7372517;19;20245;-84
2023/05/14 04:33:42;;;;;;;16.77;12.47;;;;;;;;;;7370762;19;20007;-85
2023/05/14 04:36:07;;;;;;;15.63;11.23;;;;;;;;;;7361460;19;20295;-85
2023/05/14 04:38:32;;;;;;;15.55;12.00;;;;;;;;;;7365412;19;20818;-84
2023/05/14 04:40:57;;;;;;;12.15;10.77;;;;;;;;;;7361835;19;20058;-84
2023/05/14 04:43:23;;;;;;;12.02;10.27;;;;;;;;;;7370595;19;20022;-83
2023/05/14 04:45:48;;;;;;;14.18;10.43;;;;;;;;;;7372473;19;19998;-84
2023/05/14 04:48:13;;;;;;;17.57;10.93;;;;;;;;;;7365028;19;19995;-83
2023/05/14 04:50:38;;;;;;;13.63;11.37;;;;;;;;;;7366598;19;20775;-84
2023/05/14 04:53:04;;;;;;;14.43;11.00;;;;;;;;;;7359979;19;20243;-84
2023/05/14 04:55:29;;;;;;;14.88;10.77;;;;;;;;;;7365632;19;20002;-84
2023/05/14 04:57:55;;;;;;;12.57;9.30;;;;;;;;;;7361760;19;20808;-86
2023/05/14 05:00:20;;;;;;;15.80;9.60;;;;;;;;;;7327396;19;20005;-86
2023/05/14 05:02:45;;;;;;;11.75;8.65;;;;;;;;;;7348788;19;20135;-86
2023/05/14 05:05:11;;;;;;;12.77;8.38;;;;;;;;;;7362072;19;20062;-87
2023/05/14 05:07:36;;;;;;;11.13;7.55;;;;;;;;;;7365518;19;20077;-86
2023/05/14 05:10:01;;;;;;;14.07;7.70;;;;;;;;;;7357478;19;19994;-87
2023/05/14 05:12:28;;;;;;;9.65;6.45;;;;;;;;;;7339244;19;19999;-85
2023/05/14 05:14:54;;;;;;;8.68;6.30;;;;;;;;;;7352654;19;20463;-84
2023/05/14 05:17:19;;;;;;;9.18;6.10;;;;;;;;;;7370277;19;20006;-84
2023/05/14 05:19:44;;;;;;;13.57;6.90;;;;;;;;;;7372106;19;20547;-84
2023/05/14 05:22:09;;;;;;;11.43;6.60;;;;;;;;;;7363468;19;20291;-84
2023/05/14 05:24:35;;;;;;;8.95;6.47;;;;;;;;;;7373456;19;20496;-84
2023/05/14 05:27:01;;;;;;;9.32;6.03;;;;;;;;;;7372426;19;20002;-84
2023/05/14 05:29:26;;;;;;;11.63;6.05;;;;;;;;;;7374735;19;20038;-84
2023/05/14 05:31:51;;;;;;;9.40;6.15;;;;;;;;;;7363264;19;20003;-85
2023/05/14 05:34:16;;;;;;;8.40;5.60;;;;;;;;;;7372398;19;20001;-84
2023/05/14 05:36:41;;;;;;;8.90;5.78;;;;;;;;;;7370255;19;20267;-84
2023/05/14 05:39:07;;;;;;;10.23;6.10;;;;;;;;;;7372363;19;20059;-85
2023/05/14 05:41:32;;;;;;;9.63;6.00;;;;;;;;;;7373814;19;20259;-84
2023/05/14 05:43:57;;;;;;;9.30;5.95;;;;;;;;;;7369948;19;20276;-84
2023/05/14 05:46:22;;;;;;;8.97;6.07;;;;;;;;;;7372851;19;20026;-84
2023/05/14 05:48:47;;;;;;;9.23;6.25;;;;;;;;;;7372272;19;20010;-84
2023/05/14 05:51:12;;;;;;;7.97;5.70;;;;;;;;;;7363227;19;20361;-84
2023/05/14 05:53:38;;;;;;;10.37;5.80;;;;;;;;;;7375041;19;20070;-84
2023/05/14 05:56:03;;;;;;;9.88;5.88;;;;;;;;;;7381143;19;20243;-84
2023/05/14 05:58:28;;;;;;;9.30;6.07;;;;;;;;;;7383231;19;20010;-84
2023/05/14 06:00:53;;;;;;;11.15;6.43;;;;;;;;;;7371196;19;20101;-83
2023/05/14 06:03:19;;;;;;;9.15;6.22;;;;;;;;;;7378495;19;20362;-84
2023/05/14 06:05:45;;;;;;;11.77;6.47;;;;;;;;;;7378219;19;20010;-84
2023/05/14 06:08:10;;;;;;;11.55;7.10;;;;;;;;;;7375353;19;20036;-83
2023/05/14 06:10:36;;;;;;;16.30;8.30;;;;;;;;;;7380992;19;20006;-83
2023/05/14 06:13:01;;;;;;;12.63;7.78;;;;;;;;;;7376790;19;20245;-83
2023/05/14 06:15:26;;;;;;;12.10;8.27;;;;;;;;;;7379111;19;20001;-83
2023/05/14 06:17:51;;;;;;;9.18;7.53;;;;;;;;;;7376303;19;20015;-84
2023/05/14 06:20:17;;;;;;;11.50;8.15;;;;;;;;;;7380003;19;20459;-84
2023/05/14 06:22:42;;;;;;;15.48;8.30;;;;;;;;;;7373621;19;19990;-84
2023/05/14 06:25:07;;;;;;;10.93;7.45;;;;;;;;;;7373211;19;19995;-84
2023/05/14 06:27:32;;;;;;;11.52;6.90;;;;;;;;;;7380360;19;20008;-84
2023/05/14 06:29:57;;;;;;;10.38;7.07;;;;;;;;;;7374185;19;20002;-84
2023/05/14 06:32:23;;;;;;;8.17;6.40;;;;;;;;;;7379383;19;19998;-83
2023/05/14 06:34:48;;;;;;;9.43;6.20;;;;;;;;;;7380934;19;20236;-83
2023/05/14 06:37:13;;;;;;;9.93;7.43;;;;;;;;;;7374054;19;20260;-83
2023/05/14 06:39:38;;;;;;;12.15;7.95;;;;;;;;;;7379636;19;20227;-83
2023/05/14 06:42:04;;;;;;;13.63;7.88;;;;;;;;;;7375735;19;20036;-83
2023/05/14 06:44:29;;;;;;;9.65;7.57;;;;;;;;;;7375377;19;19995;-83
2023/05/14 06:46:54;;;;;;;12.50;8.30;;;;;;;;;;7379632;19;20621;-83
2023/05/14 06:49:20;;;;;;;9.60;6.97;;;;;;;;;;7377858;19;19994;-83
2023/05/14 06:51:45;;;;;;;9.35;5.90;;;;;;;;;;7372792;19;20019;-84
2023/05/14 06:54:10;;;;;;;11.10;5.60;;;;;;;;;;7379594;19;19998;-83
2023/05/14 06:56:35;;;;;;;11.18;5.43;;;;;;;;;;7377115;19;20235;-83
2023/05/14 06:59:01;;;;;;;11.25;5.30;;;;;;;;;;7376162;19;19995;-83
2023/05/14 07:01:26;;;;;;;8.65;6.00;;;;;;;;;;7377892;19;20036;-82
2023/05/14 07:03:51;;;;;;;11.30;6.15;;;;;;;;;;7376496;19;20023;-82
2023/05/14 07:06:17;;;;;;;9.13;5.70;;;;;;;;;;7367618;19;20656;-83
2023/05/14 07:08:44;;;;;;;10.40;6.15;;;;;;;;;;7379013;19;20002;-82
2023/05/14 07:11:10;;;;;;;13.55;6.13;;;;;;;;;;7372781;19;20503;-82
2023/05/14 07:13:35;;;;;;;9.50;5.80;;;;;;;;;;7376246;19;20006;-82
2023/05/14 07:16:00;;;;;;;9.13;5.68;;;;;;;;;;7372944;19;20012;-81
2023/05/14 07:18:25;;;;;;;8.13;5.22;;;;;;;;;;7375721;19;20324;-82
2023/05/14 07:20:50;;;;;;;10.97;5.90;;;;;;;;;;7376496;19;20003;-83
2023/05/14 07:23:15;;;;;;;9.87;5.40;;;;;;;;;;7370280;19;19999;-82
2023/05/14 07:25:40;;;;;;;9.40;5.50;;;;;;;;;;7381678;19;20251;-82
2023/05/14 07:28:06;;;;;;;8.23;5.70;;;;;;;;;;7376456;19;20005;-82
2023/05/14 07:30:31;;;;;;;9.10;5.63;;;;;;;;;;7378607;19;20003;-83
2023/05/14 07:32:56;;;;;;;9.88;6.13;;;;;;;;;;7376586;19;20022;-82
2023/05/14 07:35:22;;;;;;;10.55;5.47;;;;;;;;;;7377136;19;20001;-83
2023/05/14 07:37:47;;;;;;;8.90;5.47;;;;;;;;;;7376294;19;20001;-83
2023/05/14 07:40:12;;;;;;;8.07;5.37;;;;;;;;;;7375910;19;20015;-82
2023/05/14 07:42:37;;;;;;;9.10;4.83;;;;;;;;;;7377607;19;19998;-82
2023/05/14 07:45:03;;;;;;;8.70;5.32;;;;;;;;;;7377056;19;20025;-82
2023/05/14 07:47:28;;;;;;;9.52;5.47;;;;;;;;;;7375124;19;20456;-81
2023/05/14 07:49:54;;;;;;;10.10;5.70;;;;;;;;;;7375053;19;19998;-82
2023/05/14 07:52:19;;;;;;;9.38;5.10;;;;;;;;;;7371960;19;20341;-82
2023/05/14 07:54:44;;;;;;;8.75;4.50;;;;;;;;;;7374634;19;20857;-84
2023/05/14 07:57:09;;;;;;;8.68;4.85;;;;;;;;;;7369298;19;20001;-83
2023/05/14 07:59:35;;;;;;;8.97;5.63;;;;;;;;;;7374750;19;20006;-84
2023/05/14 08:02:00;;;;;;;8.77;5.50;;;;;;;;;;7371840;19;20251;-85
2023/05/14 08:04:25;;;;;;;8.32;4.85;;;;;;;;;;7369822;19;20011;-84
2023/05/14 08:06:50;;;;;;;9.32;4.50;;;;;;;;;;7370698;19;20062;-83
2023/05/14 08:09:16;;;;;;;10.65;4.38;;;;;;;;;;7370237;19;20066;-82
2023/05/14 08:11:41;;;;;;;6.90;4.50;;;;;;;;;;7371621;19;19994;-83
2023/05/14 08:14:06;;;;;;;7.13;4.25;;;;;;;;;;7373946;19;20247;-84
2023/05/14 08:16:31;;;;;;;10.03;4.70;;;;;;;;;;7368487;19;20009;-84
2023/05/14 08:18:56;;;;;;;10.57;4.90;;;;;;;;;;7373246;19;20227;-84
2023/05/14 08:21:21;;;;;;;9.00;4.40;;;;;;;;;;7368621;19;19991;-83
2023/05/14 08:23:47;;;;;;;10.60;4.87;;;;;;;;;;7373886;19;20010;-84
2023/05/14 08:26:12;;;;;;;8.48;4.88;;;;;;;;;;7373824;19;19991;-80
2023/05/14 08:28:37;;;;;;;9.05;4.85;;;;;;;;;;7376463;19;20022;-80
2023/05/14 08:31:02;;;;;;;8.02;5.15;;;;;;;;;;7371554;19;20829;-83
2023/05/14 08:33:27;;;;;;;7.63;4.80;;;;;;;;;;7371358;19;19999;-82
2023/05/14 08:35:53;;;;;;;9.23;4.77;;;;;;;;;;7377290;19;19991;-80
2023/05/14 08:38:18;;;;;;;8.05;4.68;;;;;;;;;;7369873;19;20231;-83
2023/05/14 08:40:55;;;;;;;6.50;4.10;;;;;;;;;;7376678;19;20372;-80
2023/05/14 08:43:24;;;;;;;11.10;4.50;;;;;;;;;;7374310;19;20008;-83
2023/05/14 08:45:52;;;;;;;7.78;4.32;;;;;;;;;;7373516;19;19995;-81
2023/05/14 08:48:18;;;;;;;8.13;4.72;;;;;;;;;;7373961;19;20017;-82
2023/05/14 08:50:44;;;;;;;11.07;4.03;;;;;;;;;;7375454;19;20010;-82
2023/05/14 08:53:09;;;;;;;10.20;4.50;;;;;;;;;;7370773;19;20088;-84
2023/05/14 08:55:35;;;;;;;11.40;4.90;;;;;;;;;;7372859;19;20017;-84
2023/05/14 08:58:01;;;;;;;6.20;3.83;;;;;;;;;;7372567;19;19998;-84
2023/05/14 09:00:26;;;;;;;8.20;4.35;;;;;;;;;;7370892;19;20916;-84
2023/05/14 09:02:51;;;;;;;7.60;4.10;;;;;;;;;;7373392;19;20714;-85
2023/05/14 09:05:17;;;;;;;8.60;4.30;;;;;;;;;;7368670;19;20578;-86
2023/05/14 09:07:43;;;;;;;9.40;4.20;;;;;;;;;;7370735;19;20688;-79
2023/05/14 09:10:08;;;;;;;9.55;4.38;;;;;;;;;;7368026;19;19995;-85
2023/05/14 09:12:33;;;;;;;8.23;4.10;;;;;;;;;;7368377;19;20443;-82
2023/05/14 09:14:58;;;;;;;9.48;4.35;;;;;;;;;;7374966;19;20066;-82
2023/05/14 09:17:24;;;;;;;9.05;4.65;;;;;;;;;;7373534;19;20009;-85
2023/05/14 09:19:51;;;;;;;8.82;3.92;;;;;;;;;;7374285;19;20003;-85
2023/05/14 09:22:17;;;;;;;7.93;4.07;;;;;;;;;;7363603;19;20022;-84
2023/05/14 09:24:42;;;;;;;7.70;4.15;;;;;;;;;;7373521;19;20015;-84
2023/05/14 09:27:09;;;;;;;7.65;4.13;;;;;;;;;;7376873;19;20003;-82
2023/05/14 09:29:34;;;;;;;7.30;3.58;;;;;;;;;;7367067;19;20071;-82
2023/05/14 09:32:03;;;;;;;9.80;3.97;;;;;;;;;;7374977;19;20089;-85
2023/05/14 09:34:29;;;;;;;12.82;4.20;;;;;;;;;;7372788;19;19999;-84
2023/05/14 09:36:59;;;;;;;8.55;3.80;;;;;;;;;;7367804;19;20003;-83
2023/05/14 09:39:24;;;;;;;8.90;4.07;;;;;;;;;;7369536;19;19999;-84
2023/05/14 09:41:53;;;;;;;7.45;3.92;;;;;;;;;;7373672;19;20041;-84
2023/05/14 09:44:18;;;;;;;9.05;4.30;;;;;;;;;;7364562;19;20398;-84
2023/05/14 09:46:44;;;;;;;8.52;4.38;;;;;;;;;;7369713;19;20006;-84
2023/05/14 09:49:09;;;;;;;7.05;3.63;;;;;;;;;;7372163;19;20006;-85
2023/05/14 09:51:35;;;;;;;9.30;3.92;;;;;;;;;;7364297;19;19998;-84
2023/05/14 09:54:01;;;;;;;8.75;4.18;;;;;;;;;;7370706;19;20021;-84
2023/05/14 09:56:27;;;;;;;8.45;3.92;;;;;;;;;;7368997;19;20013;-83
2023/05/14 09:58:53;;;;;;;8.05;3.83;;;;;;;;;;7370424;19;20308;-82
2023/05/14 10:01:19;;;;;;;9.23;4.35;;;;;;;;;;7367516;19;20027;-82
2023/05/14 10:03:45;;;;;;;9.48;3.40;;;;;;;;;;7369675;19;20355;-84
2023/05/14 10:06:12;;;;;;;7.13;3.85;;;;;;;;;;7368970;19;20367;-84
2023/05/14 10:08:40;;;;;;;11.55;4.65;;;;;;;;;;7368858;19;20024;-84
2023/05/14 10:11:07;;;;;;;9.05;4.38;;;;;;;;;;7369739;19;20479;-84
2023/05/14 10:13:40;;;;;;;9.07;4.53;;;;;;;;;;7368311;19;20027;-83
2023/05/14 10:16:24;;;;;;;8.45;3.70;;;;;;;;;;7373044;19;20051;-83
2023/05/14 10:18:53;;;;;;;10.20;4.30;;;;;;;;;;7371652;19;20011;-83
2023/05/14 10:21:19;;;;;;;8.50;4.00;;;;;;;;;;7342211;19;20468;-83
2023/05/14 10:23:45;;;;;;;10.48;4.50;;;;;;;;;;7370372;19;20002;-84
2023/05/14 10:26:11;;;;;;;6.63;3.70;;;;;;;;;;7372985;19;20030;-83
2023/05/14 10:28:36;;;;;;;8.95;3.63;;;;;;;;;;7367910;19;19999;-84
2023/05/14 10:31:01;;;;;;;8.38;4.10;;;;;;;;;;7367977;19;20017;-83
2023/05/14 10:33:26;;;;;;;11.95;3.53;;;;;;;;;;7369541;19;20006;-82
2023/05/14 10:36:04;;;;;;;7.73;3.67;;;;;;;;;;7372568;19;19998;-83
2023/05/14 10:38:31;;;;;;;9.40;3.58;;;;;;;;;;7367593;19;20006;-81
2023/05/14 10:41:01;;;;;;;9.57;4.15;;;;;;;;;;7372040;19;20050;-81
2023/05/14 10:43:28;;;;;;;10.15;3.95;;;;;;;;;;7369750;19;20709;-83
2023/05/14 10:45:53;;;;;;;7.70;3.55;;;;;;;;;;7346616;19;20006;-81
2023/05/14 10:48:18;;;;;;;6.32;3.28;;;;;;;;;;7373772;19;20006;-83
2023/05/14 10:50:43;;;;;;;11.30;3.50;;;;;;;;;;7375864;19;20040;-83
2023/05/14 10:53:12;;;;;;;8.00;3.80;;;;;;;;;;7372467;19;20017;-83
2023/05/14 10:55:37;;;;;;;6.88;3.83;;;;;;;;;;7374273;19;20790;-82
2023/05/14 10:58:02;;;;;;;9.35;3.10;;;;;;;;;;7376958;19;20007;-83
2023/05/14 11:00:28;;;;;;;10.10;3.50;;;;;;;;;;7349712;19;20475;-83
2023/05/14 11:02:56;;;;;;;7.68;3.60;;;;;;;;;;7377363;19;20002;-84
2023/05/14 11:05:21;;;;;;;8.73;3.63;;;;;;;;;;7371908;19;20022;-81
2023/05/14 11:07:47;;;;;;;7.50;3.47;;;;;;;;;;7373059;19;20006;-82
2023/05/14 11:10:13;;;;;;;7.93;3.50;;;;;;;;;;7379632;19;20324;-83
2023/05/14 11:12:39;;;;;;;6.32;3.10;;;;;;;;;;7376883;19;20002;-80
2023/05/14 11:15:25;;;;;;;7.45;3.40;;;;;;;;;;7375245;19;20010;-82
2023/05/14 11:17:51;;;;;;;6.88;3.50;;;;;;;;;;7377479;19;20022;-82
2023/05/14 11:20:16;;;;;;;7.50;3.05;;;;;;;;;;7375986;19;20063;-82
2023/05/14 11:22:42;;;;;;;6.68;3.28;;;;;;;;;;7371262;19;20022;-82
2023/05/14 11:25:08;;;;;;;7.45;3.15;;;;;;;;;;7375132;19;20741;-82
2023/05/14 11:27:35;;;;;;;7.65;3.60;;;;;;;;;;7376513;19;20006;-83
2023/05/14 11:30:01;;;;;;;9.07;3.17;;;;;;;;;;7374144;19;20058;-81
2023/05/14 11:32:26;;;;;;;6.05;3.25;;;;;;;;;;7369076;19;20043;-81
2023/05/14 11:34:51;;;;;;;8.60;3.08;;;;;;;;;;7376997;19;20322;-84
2023/05/14 11:37:17;;;;;;;8.95;2.78;;;;;;;;;;7375250;19;20022;-83
2023/05/14 11:39:46;;;;;;;6.60;2.97;;;;;;;;;;7374531;19;20014;-82
2023/05/14 11:42:13;;;;;;;7.72;2.95;;;;;;;;;;7376982;19;20013;-80
2023/05/14 11:44:38;;;;;;;7.05;2.80;;;;;;;;;;7371782;19;20011;-83
2023/05/14 11:47:04;;;;;;;8.35;2.95;;;;;;;;;;7378007;19;20008;-82
2023/05/14 11:49:29;;;;;;;7.18;2.80;;;;;;;;;;7371522;19;20436;-83
2023/05/14 11:51:58;;;;;;;6.28;2.55;;;;;;;;;;7372171;19;20018;-82
2023/05/14 11:54:27;;;;;;;9.82;3.08;;;;;;;;;;7375550;19;20036;-83
2023/05/14 11:56:53;;;;;;;6.10;2.85;;;;;;;;;;7378360;19;20011;-83
2023/05/14 11:59:18;;;;;;;5.68;2.75;;;;;;;;;;7377332;19;20002;-82
2023/05/14 12:01:47;;;;;;;4.80;2.40;;;;;;;;;;7371418;19;20062;-83
2023/05/14 12:04:12;;;;;;;6.13;2.55;;;;;;;;;;7376995;19;20260;-83
2023/05/14 12:06:38;;;;;;;5.97;2.80;;;;;;;;;;7371242;19;20102;-84
2023/05/14 12:09:04;;;;;;;6.60;3.13;;;;;;;;;;7378200;19;20566;-83
2023/05/14 12:11:30;;;;;;;5.72;2.53;;;;;;;;;;7374448;19;20127;-82
2023/05/14 12:13:55;;;;;;;6.25;2.88;;;;;;;;;;7372499;19;20070;-83
2023/05/14 12:16:20;;;;;;;7.73;2.60;;;;;;;;;;7361762;19;20010;-83
2023/05/14 12:18:45;;;;;;;9.47;2.97;;;;;;;;;;7375861;19;20256;-84
2023/05/14 12:21:10;;;;;;;7.97;2.77;;;;;;;;;;7371042;19;20260;-83
2023/05/14 12:23:37;;;;;;;10.07;3.10;;;;;;;;;;7369797;19;20058;-83
2023/05/14 12:26:04;;;;;;;5.43;2.67;;;;;;;;;;7371912;19;20759;-83
2023/05/14 12:28:30;;;;;;;10.38;2.70;;;;;;;;;;7371383;19;20404;-82
2023/05/14 12:30:56;;;;;;;7.57;2.83;;;;;;;;;;7370738;19;20003;-80
2023/05/14 12:33:22;;;;;;;7.50;2.90;;;;;;;;;;7376234;19;19999;-82
2023/05/14 12:35:47;;;;;;;7.25;2.45;;;;;;;;;;7374392;19;20515;-79
2023/05/14 12:38:12;;;;;;;5.87;2.47;;;;;;;;;;7370413;19;20002;-83
2023/05/14 12:40:38;;;;;;;8.48;2.70;;;;;;;;;;7371214;19;20235;-83
2023/05/14 12:43:03;;;;;;;5.85;2.67;;;;;;;;;;7370617;19;20504;-84
2023/05/14 12:45:28;;;;;;;4.85;2.50;;;;;;;;;;7371395;19;20028;-83
2023/05/14 12:47:54;;;;;;;6.13;1.92;;;;;;;;;;7373883;19;20014;-84
2023/05/14 12:50:19;;;;;;;5.07;2.20;;;;;;;;;;7371527;19;20336;-82
2023/05/14 12:52:45;;;;;;;6.63;2.60;;;;;;;;;;7369711;19;20038;-83
2023/05/14 12:55:10;;;;;;;6.45;2.70;;;;;;;;;;7373866;19;20102;-82
2023/05/14 12:57:37;;;;;;;9.05;2.75;;;;;;;;;;7372686;19;20004;-83
2023/05/14 13:00:06;;;;;;;6.70;2.42;;;;;;;;;;7371564;19;20009;-83
2023/05/14 13:02:32;;;;;;;5.82;2.42;;;;;;;;;;7372538;19;20006;-83
2023/05/14 13:04:57;;;;;;;5.25;2.42;;;;;;;;;;7373408;19;20491;-83
2023/05/14 13:07:22;;;;;;;6.00;2.33;;;;;;;;;;7343978;19;20088;-83
2023/05/14 13:09:47;;;;;;;6.07;2.60;;;;;;;;;;7370840;19;20012;-84
2023/05/14 13:12:12;;;;;;;6.77;2.87;;;;;;;;;;7367832;19;20002;-82
2023/05/14 13:14:37;;;;;;;5.88;2.45;;;;;;;;;;7371957;19;20412;-84
2023/05/14 13:17:03;;;;;;;6.33;2.83;;;;;;;;;;7374437;19;20116;-82
2023/05/14 13:19:28;;;;;;;5.95;2.20;;;;;;;;;;7372325;19;19999;-83
2023/05/14 13:21:53;;;;;;;7.47;2.72;;;;;;;;;;7366707;19;20015;-82
2023/05/14 13:24:19;;;;;;;5.50;2.78;;;;;;;;;;7375366;19;19995;-83
2023/05/14 13:26:44;;;;;;;5.47;2.42;;;;;;;;;;7372203;19;20335;-83
2023/05/14 13:29:09;;;;;;;6.15;2.65;;;;;;;;;;7371670;19;19994;-83
2023/05/14 13:31:34;;;;;;;8.52;2.63;;;;;;;;;;7364484;19;20010;-83
2023/05/14 13:34:01;;;;;;;4.75;2.35;;;;;;;;;;7375248;19;20015;-83
2023/05/14 13:36:26;;;;;;;6.03;2.63;;;;;;;;;;7370183;19;20297;-84
2023/05/14 13:38:51;;;;;;;6.60;2.63;;;;;;;;;;7367529;19;20022;-81
2023/05/14 13:41:17;;;;;;;5.33;2.50;;;;;;;;;;7368288;19;20032;-83
2023/05/14 13:43:42;;;;;;;8.30;2.63;;;;;;;;;;7370707;19;20291;-84
2023/05/14 13:46:07;;;;;;;10.98;2.53;;;;;;;;;;7372101;19;20255;-84
2023/05/14 13:48:33;;;;;;;5.77;2.70;;;;;;;;;;7372869;19;19999;-83
2023/05/14 13:50:58;;;;;;;7.35;2.60;;;;;;;;;;7366751;19;20006;-82
2023/05/14 13:53:24;;;;;;;6.05;2.67;;;;;;;;;;7374067;19;20500;-83
2023/05/14 13:55:49;;;;;;;6.40;2.60;;;;;;;;;;7370954;19;20702;-83
2023/05/14 13:58:15;;;;;;;6.15;3.10;;;;;;;;;;7376862;19;20018;-82
2023/05/14 14:00:40;;;;;;;6.05;2.60;;;;;;;;;;7370951;19;20625;-81
2023/05/14 14:03:06;;;;;;;7.22;2.50;;;;;;;;;;7373304;19;20006;-79
2023/05/14 14:05:31;;;;;;;4.68;2.58;;;;;;;;;;7369107;19;20003;-83
2023/05/14 14:07:56;;;;;;;8.37;2.60;;;;;;;;;;7366754;19;20007;-83
2023/05/14 14:10:21;;;;;;;8.20;2.85;;;;;;;;;;7371249;19;21075;-83
2023/05/14 14:12:47;;;;;;;5.80;2.93;;;;;;;;;;7372503;19;20031;-83
2023/05/14 14:15:12;;;;;;;5.63;3.00;;;;;;;;;;7375280;19;20002;-80
2023/05/14 14:17:40;;;;;;;8.15;3.80;;;;;;;;;;7377392;19;19999;-83
2023/05/14 14:20:07;;;;;;;7.53;4.13;;;;;;;;;;7374061;19;20009;-83
2023/05/14 14:22:32;;;;;;;8.80;4.30;;;;;;;;;;7372719;19;20025;-83
2023/05/14 14:24:57;;;;;;;8.40;4.17;;;;;;;;;;7381136;19;20518;-82
2023/05/14 14:27:22;;;;;;;7.57;4.50;;;;;;;;;;7385017;19;20008;-83